KNRB/NRB METAR and TAF weather

Enter ICAO airport designator
Station Type Date Time Source
KNRB METAR 2022/11/30 15:52 UTC NOAA

KNRB 301552Z 21015KT 10SM SCT100 OVC250 27/18 A3010 RMK AO2 SLP192 T02670183


Station Type Date Time Source
KNRB Decoded METAR 2022/11/30 15:52 UTC NOAA

MAYPORT NAVAL AIR FACILITY, FL, United States (KNRB) 30-24N 81-25W 4M
Nov 30, 2022 - 10:52 AM EST / 2022.11.30 1552 UTC
Wind: from the SSW (210 degrees) at 17 MPH (15 KT):0
Visibility: 10 mile(s):0
Sky conditions: overcast
Temperature: 80.1 F (26.7 C)
Dew Point: 64.9 F (18.3 C)
Relative Humidity: 60%
Pressure (altimeter): 30.1 in. Hg (1019 hPa)
ob: KNRB 301552Z 21015KT 10SM SCT100 OVC250 27/18 A3010 RMK AO2 SLP192 T02670183
cycle: 16

Station Type Date Time Source
KNRB TAF 2022/11/30 15:59 UTC NOAA

TAF KNRB 3015/0115 21015G20KT 9999 VCSH FEW030 SCT100 BKN250 QNH3003INS
FM301800 21010G15KT 9999 VCSH SCT035CB BKN100 OVC250 QNH3000INS
TEMPO 3019/3022 VRB25G35KT 4000 -TSRA BR BKN010 OVC030CB
FM010100 35015KT 9999 SCT030 BKN250 QNH3010INS
FM011300 02015G24KT 9999 SCT025 QNH3022INS T27/3019Z T16/0111Z FN20022

Example: see airport list